.
WxDataArchive / Data Records for 2014-10-12
2014-10-11 October 2014 2014-10-13

Data Records for Sunday, 12 October 2014

Time	Temp	Chill	HIndex	Humid	Dewpt	 Wind 	HiWind	WindDir	Rain 	Barom
-----	----	-----	------	-----	-----	------	------	-------	-----	-----
00:00	37.5	37.5	37.5	84	33.1	0	0	---	0.00	30.187 
00:05	37.3	37.3	37.3	84	32.9	0	0	---	0.00	30.187 
00:10	37.3	37.3	37.3	84	32.9	0	0	---	0.00	30.187 
00:15	37.2	37.2	37.2	84	32.8	0	0	---	0.00	30.188 
00:20	37.0	37.0	37.0	84	32.6	0	0	---	0.00	30.188 
00:25	37.0	37.0	37.0	85	32.9	0	0	---	0.00	30.188 
00:30	36.9	36.9	36.9	85	32.8	0	0	---	0.00	30.190 
00:35	36.8	36.8	36.8	85	32.7	0	0	---	0.00	30.190 
00:40	36.8	36.8	36.8	85	32.7	0	0	---	0.00	30.190 
00:45	36.6	36.6	36.6	85	32.5	0	0	---	0.00	30.190 
00:50	36.5	36.5	36.5	85	32.4	0	0	---	0.00	30.190 
00:55	36.5	36.5	36.5	86	32.7	0	0	---	0.00	30.190 
01:00	36.3	36.3	36.3	86	32.5	0	0	---	0.00	30.187 
01:05	36.2	36.2	36.2	86	32.4	0	0	---	0.00	30.187 
01:10	36.0	36.0	36.0	86	32.2	0	0	---	0.00	30.187 
01:15	35.9	35.9	35.9	86	32.1	0	0	---	0.00	30.186 
01:20	35.8	35.8	35.8	87	32.3	0	0	---	0.00	30.186 
01:25	35.8	35.8	35.8	87	32.3	0	0	---	0.00	30.186 
01:30	35.6	35.6	35.6	87	32.1	0	0	---	0.00	30.183 
01:35	35.5	35.5	35.5	88	32.3	0	0	---	0.00	30.183 
01:40	35.5	35.5	35.5	88	32.3	0	0	---	0.00	30.183 
01:45	35.3	35.3	35.3	88	32.1	0	0	---	0.00	30.187 
01:50	35.2	35.2	35.2	88	32.0	0	0	---	0.00	30.187 
01:55	35.2	35.2	35.2	88	32.0	0	0	---	0.00	30.187 
02:00	35.0	35.0	35.0	88	31.8	0	0	---	0.00	30.188 
02:05	35.0	35.0	35.0	89	32.1	0	0	---	0.00	30.188 
02:10	34.9	34.9	34.9	89	32.0	0	0	---	0.00	30.188 
02:15	34.7	34.7	34.7	89	31.8	0	0	---	0.00	30.185 
02:20	34.7	34.7	34.7	89	31.8	0	0	---	0.00	30.185 
02:25	34.6	34.6	34.6	89	31.7	0	0	---	0.00	30.185 
02:30	34.4	34.4	34.4	89	31.5	0	0	---	0.00	30.182 
02:35	34.3	34.3	34.3	90	31.7	0	0	---	0.00	30.182 
02:40	34.3	34.3	34.3	90	31.7	0	0	---	0.00	30.182 
02:45	34.1	34.1	34.1	90	31.5	0	0	---	0.00	30.175 
02:50	34.0	34.0	34.0	90	31.4	0	0	---	0.00	30.175 
02:55	33.8	33.8	33.8	90	31.2	0	0	---	0.00	30.175 
03:00	33.8	33.8	33.8	90	31.2	0	0	---	0.00	30.172 
03:05	33.7	33.7	33.7	90	31.1	0	0	---	0.00	30.172 
03:10	33.7	33.7	33.7	90	31.1	0	0	---	0.00	30.172 
03:15	33.5	33.5	33.5	90	30.9	0	0	---	0.00	30.171 
03:20	33.5	33.5	33.5	91	31.2	0	0	---	0.00	30.171 
03:25	33.5	33.5	33.5	91	31.2	0	0	---	0.00	30.171 
03:30	33.4	33.4	33.4	91	31.1	0	0	---	0.00	30.170 
03:35	33.2	33.2	33.2	91	30.9	0	0	---	0.00	30.170 
03:40	33.2	33.2	33.2	91	30.9	0	0	---	0.00	30.170 
03:45	33.2	33.2	33.2	91	30.9	0	0	---	0.00	30.161 
03:50	33.1	33.1	33.1	91	30.8	0	0	---	0.00	30.161 
03:55	33.1	33.1	33.1	91	30.8	0	0	---	0.00	30.161 
04:00	33.1	33.1	33.1	91	30.8	0	0	---	0.00	30.158 
04:05	33.1	33.1	33.1	91	30.8	0	0	---	0.00	30.158 
04:10	33.1	33.1	33.1	92	31.0	0	0	---	0.00	30.158 
04:15	33.1	33.1	33.1	92	31.0	0	0	---	0.00	30.155 
04:20	33.1	33.1	33.1	92	31.0	0	0	---	0.00	30.155 
04:25	33.1	33.1	33.1	92	31.0	0	0	---	0.00	30.155 
04:30	33.1	33.1	33.1	92	31.0	0	0	---	0.00	30.152 
04:35	33.2	33.2	33.2	92	31.1	0	0	---	0.00	30.152 
04:40	33.4	33.4	33.4	92	31.3	0	0	---	0.00	30.152 
04:45	33.4	33.4	33.4	92	31.3	0	0	---	0.00	30.148 
04:50	33.4	33.4	33.4	92	31.3	0	0	---	0.00	30.148 
04:55	33.4	33.4	33.4	92	31.3	0	0	---	0.00	30.148 
05:00	33.5	33.5	33.5	92	31.4	0	0	---	0.00	30.143 
05:05	33.7	33.7	33.7	92	31.6	0	0	---	0.00	30.143 
05:10	34.1	34.1	34.1	93	32.3	0	1	90	0.00	30.143 
05:15	34.4	34.4	34.4	93	32.6	0	0	---	0.00	30.148 
05:20	34.6	34.6	34.6	93	32.8	0	0	---	0.00	30.148 
05:25	34.9	34.9	34.9	93	33.1	0	0	---	0.00	30.148 
05:30	35.0	35.0	35.0	93	33.2	0	0	---	0.00	30.147 
05:35	34.9	34.9	34.9	93	33.1	0	0	---	0.00	30.147 
05:40	34.7	34.7	34.7	93	32.9	0	0	---	0.00	30.147 
05:45	34.7	34.7	34.7	93	32.9	0	0	---	0.00	30.150 
05:50	34.6	34.6	34.6	93	32.8	0	0	---	0.00	30.150 
05:55	34.6	34.6	34.6	93	32.8	0	0	---	0.00	30.150 
06:00	34.4	34.4	34.4	93	32.6	0	0	---	0.00	30.155 
06:05	34.3	34.3	34.3	93	32.5	0	0	---	0.00	30.155 
06:10	34.3	34.3	34.3	93	32.5	0	0	---	0.00	30.155 
06:15	34.1	34.1	34.1	93	32.3	0	0	---	0.00	30.156 
06:20	34.0	34.0	34.0	93	32.2	0	0	---	0.00	30.156 
06:25	34.0	34.0	34.0	93	32.2	0	0	---	0.00	30.156 
06:30	33.8	33.8	33.8	93	32.0	0	0	---	0.00	30.156 
06:35	33.8	33.8	33.8	93	32.0	0	0	---	0.00	30.156 
06:40	33.8	33.8	33.8	93	32.0	0	0	---	0.00	30.156 
06:45	33.8	33.8	33.8	93	32.0	0	0	---	0.00	30.156 
06:50	33.8	33.8	33.8	93	32.0	0	0	---	0.00	30.156 
06:55	34.1	34.1	34.1	93	32.3	0	0	---	0.00	30.156 
07:00	34.4	34.4	34.4	93	32.6	0	0	---	0.00	30.159 
07:05	34.4	34.4	34.4	93	32.6	0	0	---	0.00	30.159 
07:10	34.4	34.4	34.4	93	32.6	0	0	---	0.00	30.159 
07:15	34.4	34.4	34.4	93	32.6	0	1	90	0.00	30.164 
07:20	34.4	34.4	34.4	93	32.6	0	0	---	0.00	30.164 
07:25	34.6	34.6	34.6	93	32.8	0	1	90	0.00	30.164 
07:30	34.7	34.7	34.7	93	32.9	0	1	90	0.00	30.160 
07:35	34.7	34.7	34.7	93	32.9	0	0	---	0.00	30.160 
07:40	34.9	34.9	34.9	93	33.1	0	1	90	0.00	30.160 
07:45	34.9	34.9	34.9	93	33.1	0	0	---	0.00	30.163 
07:50	34.9	34.9	34.9	93	33.1	0	1	90	0.00	30.163 
07:55	34.9	34.9	34.9	93	33.1	0	1	90	0.00	30.163 
08:00	34.9	34.9	34.9	93	33.1	0	1	90	0.00	30.161 
08:05	35.0	35.0	35.0	93	33.2	0	1	90	0.00	30.161 
08:10	35.0	35.0	35.0	93	33.2	0	1	90	0.00	30.161 
08:15	35.2	35.2	35.2	92	33.1	0	1	90	0.00	30.163 
08:20	35.3	35.3	35.3	92	33.2	0	1	90	0.00	30.163 
08:25	35.6	35.6	35.6	92	33.5	0	2	90	0.00	30.163 
08:30	35.9	35.9	35.9	92	33.8	0	2	90	0.00	30.159 
08:35	36.3	36.3	36.3	92	34.2	0	1	90	0.00	30.159 
08:40	36.8	36.8	36.8	91	34.4	0	1	90	0.00	30.159 
08:45	37.0	37.0	37.0	90	34.3	1	2	90	0.00	30.158 
08:50	37.3	37.3	37.3	90	34.6	0	3	90	0.00	30.158 
08:55	37.6	37.6	37.6	89	34.7	0	2	90	0.00	30.158 
09:00	38.0	38.0	38.0	89	35.1	0	2	90	0.00	30.163 
09:05	38.3	38.3	38.3	88	35.1	0	2	90	0.00	30.163 
09:10	38.6	38.6	38.6	87	35.1	1	4	90	0.00	30.163 
09:15	38.9	38.9	38.9	86	35.1	1	3	68	0.00	30.159 
09:20	39.3	39.3	39.3	86	35.5	1	3	68	0.00	30.159 
09:25	39.8	39.8	39.8	84	35.4	2	5	68	0.00	30.159 
09:30	40.2	40.2	40.2	84	35.8	1	4	68	0.00	30.156 
09:35	40.6	40.6	40.6	83	35.8	1	5	68	0.00	30.156 
09:40	41.1	41.1	41.1	83	36.3	1	3	112	0.00	30.156 
09:45	41.6	41.6	41.6	82	36.5	0	3	112	0.00	30.155 
09:50	42.3	42.3	42.3	82	37.2	0	2	112	0.00	30.155 
09:55	43.1	43.1	43.1	79	37.0	1	4	112	0.00	30.155 
10:00	43.9	43.9	43.9	77	37.2	2	6	90	0.00	30.151 
10:05	44.5	44.5	44.5	76	37.4	1	4	90	0.00	30.151 
10:10	45.2	45.2	45.2	74	37.4	1	3	45	0.00	30.151 
10:15	46.4	46.4	46.4	69	36.8	1	5	68	0.00	30.146 
10:20	47.1	47.1	47.1	68	37.1	2	5	68	0.00	30.146 
10:25	48.0	48.0	48.0	66	37.2	1	5	90	0.00	30.146 
10:30	48.3	48.3	48.3	65	37.1	2	7	112	0.00	30.143 
10:35	48.9	48.9	48.9	63	36.9	1	4	90	0.00	30.143 
10:40	49.4	49.4	49.4	62	36.9	2	7	90	0.00	30.143 
10:45	49.5	49.5	49.5	62	37.0	2	9	68	0.00	30.138 
10:50	50.1	50.1	50.1	61	37.2	2	4	68	0.00	30.138 
10:55	50.5	50.5	50.5	61	37.6	1	4	68	0.00	30.138 
11:00	51.4	51.4	51.4	59	37.6	1	5	68	0.00	30.131 
11:05	51.7	51.7	51.7	59	37.8	3	5	90	0.00	30.131 
11:10	51.7	51.7	51.7	58	37.4	2	6	90	0.00	30.131 
11:15	52.3	52.3	52.3	58	38.0	1	6	90	0.00	30.127 
11:20	52.9	52.9	52.9	58	38.5	1	6	90	0.00	30.127 
11:25	53.1	53.1	53.1	56	37.8	2	7	90	0.00	30.127 
11:30	53.3	53.3	53.3	57	38.5	2	5	90	0.00	30.125 
11:35	53.9	53.9	53.9	58	39.5	0	2	90	0.00	30.125 
11:40	54.5	54.5	54.5	54	38.2	2	6	90	0.00	30.125 
11:45	55.0	55.0	55.0	56	39.6	1	4	90	0.00	30.114 
11:50	55.4	55.4	55.4	53	38.6	2	5	90	0.00	30.114 
11:55	55.7	55.7	55.7	52	38.3	2	6	90	0.00	30.114 
12:00	55.7	55.7	55.7	52	38.3	2	7	90	0.00	30.113 
12:05	56.0	56.0	56.0	53	39.1	2	5	68	0.00	30.113 
12:10	56.5	56.5	56.5	52	39.1	2	5	90	0.00	30.113 
12:15	56.7	56.7	56.7	51	38.8	2	5	90	0.00	30.108 
12:20	57.2	57.2	57.2	50	38.7	1	6	90	0.00	30.108 
12:25	57.6	57.6	57.6	50	39.1	1	3	112	0.00	30.108 
12:30	58.3	58.3	58.3	50	39.7	0	3	90	0.00	30.103 
12:35	58.6	58.6	58.6	48	39.0	2	7	90	0.00	30.103 
12:40	58.3	58.3	58.3	49	39.2	2	7	90	0.00	30.103 
12:45	58.4	58.4	58.4	50	39.8	2	4	68	0.00	30.100 
12:50	58.9	58.9	58.9	48	39.2	1	6	112	0.00	30.100 
12:55	58.9	58.9	58.9	47	38.7	3	6	90	0.00	30.100 
13:00	58.9	58.9	58.9	49	39.8	2	4	112	0.00	30.088 
13:05	59.2	59.2	59.2	46	38.4	2	6	90	0.00	30.088 
13:10	59.2	59.2	59.2	47	39.0	3	6	90	0.00	30.088 
13:15	59.0	59.0	59.0	46	38.2	2	6	90	0.00	30.078 
13:20	59.3	59.3	59.3	46	38.5	2	6	90	0.00	30.078 
13:25	59.5	59.5	59.5	46	38.7	3	6	90	0.00	30.078 
13:30	59.5	59.5	59.5	46	38.7	2	6	90	0.00	30.073 
13:35	59.5	59.5	59.5	46	38.7	2	7	90	0.00	30.073 
13:40	59.5	59.5	59.5	45	38.1	2	6	90	0.00	30.073 
13:45	59.8	59.8	59.8	46	39.0	1	4	68	0.00	30.067 
13:50	60.1	60.1	60.1	44	38.1	3	10	68	0.00	30.067 
13:55	59.9	59.9	59.9	45	38.5	2	10	90	0.00	30.067 
14:00	59.9	59.9	59.9	45	38.5	3	8	90	0.00	30.058 
14:05	60.1	60.1	60.1	46	39.2	2	7	90	0.00	30.058 
14:10	60.2	60.2	60.2	43	37.6	3	9	90	0.00	30.058 
14:15	60.2	60.2	60.2	43	37.6	3	7	90	0.00	30.049 
14:20	60.4	60.4	60.4	43	37.8	2	4	68	0.00	30.049 
14:25	60.7	60.7	60.7	45	39.2	1	6	90	0.00	30.049 
14:30	60.9	60.9	60.9	43	38.3	2	6	68	0.00	30.043 
14:35	60.9	60.9	60.9	42	37.7	1	4	135	0.00	30.043 
14:40	60.9	60.9	60.9	45	39.4	2	9	112	0.00	30.043 
14:45	61.2	61.2	61.2	43	38.5	2	5	90	0.00	30.033 
14:50	61.2	61.2	61.2	42	37.9	2	4	112	0.00	30.033 
14:55	61.2	61.2	61.2	41	37.3	2	5	112	0.00	30.033 
15:00	61.5	61.5	61.5	41	37.6	2	7	112	0.00	30.024 
15:05	61.6	61.6	61.6	42	38.3	1	3	112	0.00	30.024 
15:10	61.8	61.8	61.8	42	38.5	1	3	112	0.00	30.024 
15:15	62.1	62.1	62.1	40	37.5	2	5	112	0.00	30.020 
15:20	62.1	62.1	62.1	40	37.5	2	9	90	0.00	30.020 
15:25	62.4	62.4	62.4	40	37.8	2	7	135	0.00	30.020 
15:30	62.4	62.4	62.4	38	36.5	2	5	112	0.00	30.013 
15:35	62.3	62.3	62.3	39	37.0	2	5	112	0.00	30.013 
15:40	62.0	62.0	62.0	39	36.8	1	4	112	0.00	30.013 
15:45	62.1	62.1	62.1	40	37.5	2	4	68	0.00	30.010 
15:50	62.1	62.1	62.1	40	37.5	1	6	68	0.00	30.010 
15:55	62.3	62.3	62.3	40	37.7	1	5	112	0.00	30.010 
16:00	62.4	62.4	62.4	40	37.8	0	4	112	0.00	29.999 
16:05	62.4	62.4	62.4	39	37.1	2	6	90	0.00	29.999 
16:10	62.4	62.4	62.4	40	37.8	2	5	68	0.00	29.999 
16:15	62.6	62.6	62.6	39	37.3	2	5	90	0.00	29.993 
16:20	62.7	62.7	62.7	40	38.0	1	6	135	0.00	29.993 
16:25	62.7	62.7	62.7	39	37.4	1	6	90	0.00	29.993 
16:30	62.6	62.6	62.6	40	37.9	2	9	90	0.00	29.987 
16:35	62.7	62.7	62.7	42	39.3	1	5	90	0.00	29.987 
16:40	62.7	62.7	62.7	41	38.7	2	7	90	0.00	29.987 
16:45	62.9	62.9	62.9	40	38.2	1	5	90	0.00	29.982 
16:50	62.9	62.9	62.9	41	38.8	1	3	90	0.00	29.982 
16:55	62.7	62.7	62.7	41	38.7	1	4	90	0.00	29.982 
17:00	62.7	62.7	62.7	42	39.3	1	3	68	0.00	29.978 
17:05	62.7	62.7	62.7	41	38.7	1	3	68	0.00	29.978 
17:10	62.9	62.9	62.9	41	38.8	2	5	90	0.00	29.978 
17:15	63.1	63.1	63.1	41	39.0	2	5	90	0.00	29.978 
17:20	63.2	63.2	63.2	43	40.3	1	4	90	0.00	29.978 
17:25	63.2	63.2	63.2	42	39.7	1	4	90	0.00	29.978 
17:30	63.2	63.2	63.2	43	40.3	1	3	112	0.00	29.976 
17:35	63.1	63.1	63.1	42	39.6	1	4	90	0.00	29.976 
17:40	63.1	63.1	63.1	42	39.6	1	4	90	0.00	29.976 
17:45	63.1	63.1	63.1	43	40.2	1	4	68	0.00	29.980 
17:50	63.1	63.1	63.1	42	39.6	1	5	68	0.00	29.980 
17:55	63.1	63.1	63.1	43	40.2	0	5	135	0.00	29.980 
18:00	62.9	62.9	62.9	44	40.6	0	2	135	0.00	29.980 
18:05	62.7	62.7	62.7	43	39.9	0	2	135	0.00	29.980 
18:10	62.6	62.6	62.6	44	40.4	0	1	135	0.00	29.980 
18:15	62.6	62.6	62.6	44	40.4	0	1	135	0.00	29.983 
18:20	62.6	62.6	62.6	44	40.4	1	2	135	0.00	29.983 
18:25	62.6	62.6	62.6	45	41.0	0	2	45	0.00	29.983 
18:30	62.4	62.4	62.4	45	40.8	0	1	45	0.00	29.980 
18:35	62.4	62.4	62.4	45	40.8	0	2	45	0.00	29.980 
18:40	62.3	62.3	62.3	46	41.3	0	2	45	0.00	29.980 
18:45	62.3	62.3	62.3	46	41.3	0	2	45	0.00	29.980 
18:50	62.0	62.0	62.0	47	41.5	0	3	45	0.00	29.980 
18:55	61.8	61.8	61.8	47	41.4	0	2	45	0.00	29.980 
19:00	61.5	61.5	61.5	48	41.6	0	2	45	0.00	29.979 
19:05	61.3	61.3	61.3	48	41.4	0	2	45	0.00	29.979 
19:10	61.0	61.0	61.0	48	41.2	1	4	45	0.00	29.979 
19:15	60.9	60.9	60.9	49	41.6	1	4	90	0.00	29.978 
19:20	60.7	60.7	60.7	48	40.9	1	3	90	0.00	29.978 
19:25	60.5	60.5	60.5	48	40.7	1	3	90	0.00	29.978 
19:30	60.4	60.4	60.4	49	41.1	1	3	90	0.00	29.980 
19:35	60.2	60.2	60.2	49	41.0	1	3	90	0.00	29.980 
19:40	60.1	60.1	60.1	49	40.9	0	4	90	0.00	29.980 
19:45	59.9	59.9	59.9	50	41.2	1	3	90	0.00	29.981 
19:50	59.9	59.9	59.9	48	40.2	1	4	90	0.00	29.981 
19:55	59.8	59.8	59.8	49	40.6	1	4	112	0.00	29.981 
20:00	59.8	59.8	59.8	49	40.6	1	3	90	0.00	29.979 
20:05	59.6	59.6	59.6	50	40.9	0	2	90	0.00	29.979 
20:10	59.5	59.5	59.5	49	40.3	1	4	90	0.00	29.979 
20:15	59.5	59.5	59.5	49	40.3	1	3	90	0.00	29.974 
20:20	59.5	59.5	59.5	49	40.3	1	3	90	0.00	29.974 
20:25	59.5	59.5	59.5	49	40.3	1	5	90	0.00	29.974 
20:30	59.5	59.5	59.5	49	40.3	1	5	45	0.00	29.976 
20:35	59.5	59.5	59.5	49	40.3	1	2	45	0.00	29.976 
20:40	59.5	59.5	59.5	49	40.3	1	4	68	0.00	29.976 
20:45	59.5	59.5	59.5	50	40.8	1	4	90	0.00	29.976 
20:50	59.5	59.5	59.5	50	40.8	1	4	68	0.00	29.976 
20:55	59.5	59.5	59.5	50	40.8	1	3	68	0.00	29.976 
21:00	59.5	59.5	59.5	50	40.8	1	5	90	0.00	29.977 
21:05	59.5	59.5	59.5	50	40.8	0	4	68	0.00	29.977 
21:10	59.5	59.5	59.5	50	40.8	0	2	68	0.00	29.977 
21:15	59.3	59.3	59.3	51	41.2	0	2	68	0.00	29.976 
21:20	59.2	59.2	59.2	50	40.6	1	4	68	0.00	29.976 
21:25	59.2	59.2	59.2	51	41.1	0	1	68	0.00	29.976 
21:30	59.0	59.0	59.0	51	40.9	1	3	68	0.00	29.974 
21:35	58.9	58.9	58.9	52	41.3	1	5	90	0.00	29.974 
21:40	58.7	58.7	58.7	53	41.6	1	3	45	0.00	29.974 
21:45	58.6	58.6	58.6	54	42.0	3	5	90	0.00	29.968 
21:50	58.4	58.4	58.4	54	41.8	3	5	68	0.00	29.968 
21:55	58.4	58.4	58.4	54	41.8	1	6	90	0.00	29.968 
22:00	58.3	58.3	58.3	55	42.2	1	3	68	0.00	29.972 
22:05	58.3	58.3	58.3	55	42.2	1	2	68	0.00	29.972 
22:10	58.1	58.1	58.1	56	42.5	1	4	68	0.00	29.972 
22:15	58.0	58.0	58.0	57	42.9	1	4	68	0.00	29.969 
22:20	57.6	57.6	57.6	58	42.9	0	3	68	0.00	29.969 
22:25	57.5	57.5	57.5	59	43.3	1	2	68	0.00	29.969 
22:30	57.3	57.3	57.3	59	43.1	1	3	68	0.00	29.968 
22:35	57.2	57.2	57.2	60	43.4	1	4	68	0.00	29.968 
22:40	57.0	57.0	57.0	61	43.7	1	5	90	0.00	29.968 
22:45	56.9	56.9	56.9	62	44.0	1	5	90	0.00	29.954 
22:50	56.7	56.7	56.7	62	43.8	1	3	90	0.00	29.954 
22:55	56.6	56.6	56.6	63	44.2	1	3	68	0.00	29.954 
23:00	56.5	56.5	56.5	63	44.1	1	3	68	0.00	29.956 
23:05	56.3	56.3	56.3	64	44.3	0	1	68	0.00	29.956 
23:10	56.0	56.0	56.0	65	44.4	0	3	68	0.00	29.956 
23:15	55.9	55.9	55.9	65	44.3	0	3	68	0.00	29.953 
23:20	55.7	55.7	55.7	66	44.5	0	2	68	0.00	29.953 
23:25	55.6	55.6	55.6	66	44.4	0	2	68	0.00	29.953 
23:30	55.3	55.3	55.3	67	44.5	0	1	68	0.00	29.951 
23:35	55.1	55.1	55.1	68	44.7	0	1	68	0.00	29.951 
23:40	54.8	54.8	54.8	68	44.4	0	1	68	0.00	29.951 
23:45	54.7	54.7	54.7	69	44.7	0	2	68	0.00	29.949 
23:50	54.5	54.5	54.5	69	44.5	0	1	68	0.00	29.949 
23:55	54.7	54.7	54.7	70	45.1	0	1	68	0.00	29.949 

CoCoRaHS
IN-AL-39
A2 Web Hosting
Creative Commons License
GoDaddy
search engine by freefind advanced

loaded 2018-11-14 04:15:35 • last modified 2010-11-18 10:43:29
Privacy PolicyDisclaimer
• wx.awcolley.com is powered by PmWiki v.2002016 •
• all content (unless otherwise noted) © 2018 A W Colley